createdAt,value
2016-06-05T00:00:17.274Z,0
2016-06-05T00:01:17.292Z,0
2016-06-05T00:02:17.280Z,0
2016-06-05T00:03:17.250Z,0
2016-06-05T00:04:17.097Z,0
2016-06-05T00:05:17.241Z,0
2016-06-05T00:06:17.228Z,0
2016-06-05T00:07:17.230Z,0
2016-06-05T00:08:17.232Z,0
2016-06-05T00:09:17.189Z,0
2016-06-05T00:10:17.207Z,0
2016-06-05T00:11:17.194Z,0
2016-06-05T00:12:17.244Z,0
2016-06-05T00:13:17.888Z,0
2016-06-05T00:14:17.171Z,0
2016-06-05T00:15:16.985Z,0
2016-06-05T00:16:17.129Z,0
2016-06-05T00:17:17.116Z,0
2016-06-05T00:18:17.151Z,0
2016-06-05T00:19:17.091Z,0
2016-06-05T00:20:17.218Z,0
2016-06-05T00:21:17.081Z,0
2016-06-05T00:22:16.943Z,0
2016-06-05T00:23:17.070Z,0
2016-06-05T00:24:17.089Z,0
2016-06-05T00:25:17.045Z,0
2016-06-05T00:26:17.048Z,0
2016-06-05T00:27:17.018Z,0
2016-06-05T00:28:17.021Z,0
2016-06-05T00:29:17.023Z,0
2016-06-05T00:30:17.042Z,0
2016-06-05T00:31:16.983Z,0
2016-06-05T00:32:17.000Z,0
2016-06-05T00:33:16.988Z,0
2016-06-05T00:34:16.975Z,0
2016-06-05T00:35:16.946Z,0
2016-06-05T00:36:16.949Z,0
2016-06-05T00:37:16.920Z,0
2016-06-05T00:38:16.923Z,0
2016-06-05T00:39:16.894Z,0
2016-06-05T00:40:16.928Z,0
2016-06-05T00:41:16.885Z,0
2016-06-05T00:42:16.888Z,0
2016-06-05T00:43:17.327Z,0
2016-06-05T00:44:16.876Z,0
2016-06-05T00:45:16.864Z,0
2016-06-05T00:46:16.694Z,0
2016-06-05T00:47:16.696Z,0
2016-06-05T00:48:16.824Z,0
2016-06-05T00:49:16.671Z,0
2016-06-05T00:50:16.799Z,0
2016-06-05T00:51:16.802Z,0
2016-06-05T00:52:16.804Z,0
2016-06-05T00:53:16.792Z,0
2016-06-05T00:54:16.795Z,0
2016-06-05T00:55:16.781Z,0
2016-06-05T00:56:16.753Z,0
2016-06-05T00:57:16.787Z,0
2016-06-05T00:58:16.962Z,0
2016-06-05T00:59:16.761Z,0
2016-06-05T01:00:16.717Z,0
2016-06-05T01:01:16.704Z,0
2016-06-05T01:02:16.675Z,0
2016-06-05T01:03:16.536Z,0
2016-06-05T01:04:16.712Z,0
2016-06-05T01:05:16.730Z,0
2016-06-05T01:06:16.670Z,0
2016-06-05T01:07:16.689Z,0
2016-06-05T01:08:16.644Z,0
2016-06-05T01:09:16.631Z,0
2016-06-05T01:10:16.619Z,0
2016-06-05T01:11:16.731Z,0
2016-06-05T01:12:16.593Z,0
2016-06-05T01:13:17.236Z,0
2016-06-05T01:14:16.566Z,0
2016-06-05T01:15:16.413Z,0
2016-06-05T01:16:16.572Z,0
2016-06-05T01:17:16.574Z,0
2016-06-05T01:18:16.390Z,0
2016-06-05T01:19:16.533Z,0
2016-06-05T01:20:16.521Z,0
2016-06-05T01:21:16.539Z,0
2016-06-05T01:22:16.510Z,0
2016-06-05T01:23:16.544Z,0
2016-06-05T01:24:16.484Z,0
2016-06-05T01:25:16.471Z,0
2016-06-05T01:26:16.459Z,0
2016-06-05T01:27:16.445Z,0
2016-06-05T01:28:16.932Z,0
2016-06-05T01:29:16.435Z,0
2016-06-05T01:30:16.422Z,0
2016-06-05T01:31:16.410Z,0
2016-06-05T01:32:16.397Z,0
2016-06-05T01:33:16.399Z,0
2016-06-05T01:34:16.370Z,0
2016-06-05T01:35:16.373Z,0
2016-06-05T01:36:16.376Z,0
2016-06-05T01:37:16.364Z,0
2016-06-05T01:38:16.366Z,0
2016-06-05T01:39:16.321Z,0
2016-06-05T01:40:16.325Z,0
2016-06-05T01:41:16.311Z,0
2016-06-05T01:42:16.299Z,0
2016-06-05T01:43:16.302Z,0
2016-06-05T01:44:16.289Z,0
2016-06-05T01:45:16.275Z,0
2016-06-05T01:46:16.309Z,0
2016-06-05T01:47:16.265Z,0
2016-06-05T01:48:16.252Z,0
2016-06-05T01:49:16.082Z,0
2016-06-05T01:50:16.289Z,0
2016-06-05T01:51:16.213Z,0
2016-06-05T01:52:16.201Z,0
2016-06-05T01:53:16.171Z,0
2016-06-05T01:54:16.206Z,0
2016-06-05T01:55:16.177Z,0
2016-06-05T01:56:16.165Z,0
2016-06-05T01:57:16.167Z,0
2016-06-05T01:58:16.637Z,0
2016-06-05T01:59:16.140Z,0
2016-06-05T02:00:16.160Z,0
2016-06-05T02:01:16.115Z,0
2016-06-05T02:02:16.103Z,0
2016-06-05T02:03:16.090Z,0
2016-06-05T02:04:16.092Z,0
2016-06-05T02:05:16.095Z,0
2016-06-05T02:06:16.113Z,0
2016-06-05T02:07:16.053Z,0
2016-06-05T02:08:16.025Z,0
2016-06-05T02:09:16.042Z,0
2016-06-05T02:10:16.030Z,0
2016-06-05T02:11:15.861Z,0
2016-06-05T02:12:15.848Z,0
2016-06-05T02:13:16.350Z,0
2016-06-05T02:14:15.978Z,0
2016-06-05T02:15:15.824Z,0
2016-06-05T02:16:15.968Z,0
2016-06-05T02:17:15.939Z,0
2016-06-05T02:18:15.941Z,0
2016-06-05T02:19:15.929Z,0
2016-06-05T02:20:15.932Z,0
2016-06-05T02:21:15.904Z,0
2016-06-05T02:22:15.921Z,0
2016-06-05T02:23:15.877Z,0
2016-06-05T02:24:15.879Z,0
2016-06-05T02:25:15.867Z,0
2016-06-05T02:26:15.871Z,0
2016-06-05T02:27:15.841Z,0
2016-06-05T02:28:15.765Z,0
2016-06-05T02:29:15.831Z,0
2016-06-05T02:30:15.834Z,0
2016-06-05T02:31:15.806Z,0
2016-06-05T02:32:15.808Z,0
2016-06-05T02:33:15.779Z,0
2016-06-05T02:34:15.767Z,0
2016-06-05T02:35:15.769Z,0
2016-06-05T02:36:15.772Z,4
2016-06-05T02:37:15.759Z,4
2016-06-05T02:38:15.762Z,0
2016-06-05T02:39:15.717Z,0
2016-06-05T02:40:15.704Z,4
2016-06-05T02:41:15.786Z,4
2016-06-05T02:42:15.538Z,0
2016-06-05T02:43:15.946Z,4
2016-06-05T02:44:15.684Z,4
2016-06-05T02:45:15.733Z,4
2016-06-05T02:46:15.642Z,4
2016-06-05T02:47:15.895Z,4
2016-06-05T02:48:15.633Z,8
2016-06-05T02:49:15.635Z,4
2016-06-05T02:50:15.607Z,8
2016-06-05T02:51:15.625Z,8
2016-06-05T02:52:15.425Z,8
2016-06-05T02:53:15.615Z,8
2016-06-05T02:54:15.570Z,12
2016-06-05T02:55:15.621Z,12
2016-06-05T02:56:15.529Z,16
2016-06-05T02:57:15.562Z,16
2016-06-05T02:58:15.785Z,16
2016-06-05T02:59:15.568Z,20
2016-06-05T03:00:15.508Z,24
2016-06-05T03:01:15.495Z,24
2016-06-05T03:02:15.498Z,24
2016-06-05T03:03:15.532Z,32
2016-06-05T03:04:15.456Z,32
2016-06-05T03:05:15.459Z,36
2016-06-05T03:06:15.445Z,40
2016-06-05T03:07:15.448Z,44
2016-06-05T03:08:15.420Z,48
2016-06-05T03:09:15.469Z,52
2016-06-05T03:10:15.411Z,56
2016-06-05T03:11:15.414Z,60
2016-06-05T03:12:15.384Z,68
2016-06-05T03:13:15.419Z,72
2016-06-05T03:14:15.358Z,76
2016-06-05T03:15:15.345Z,84
2016-06-05T03:16:15.333Z,88
2016-06-05T03:17:15.335Z,96
2016-06-05T03:18:15.322Z,100
2016-06-05T03:19:15.293Z,104
2016-06-05T03:20:15.280Z,112
2016-06-05T03:21:15.268Z,120
2016-06-05T03:22:15.285Z,128
2016-06-05T03:23:15.273Z,136
2016-06-05T03:24:15.244Z,148
2016-06-05T03:25:15.263Z,156
2016-06-05T03:26:15.235Z,164
2016-06-05T03:27:15.206Z,172
2016-06-05T03:28:15.084Z,184
2016-06-05T03:29:15.196Z,192
2016-06-05T03:30:15.198Z,204
2016-06-05T03:31:15.185Z,212
2016-06-05T03:32:15.188Z,228
2016-06-05T03:33:15.175Z,236
2016-06-05T03:34:15.162Z,248
2016-06-05T03:35:15.149Z,260
2016-06-05T03:36:15.168Z,272
2016-06-05T03:37:15.154Z,288
2016-06-05T03:38:15.157Z,300
2016-06-05T03:39:15.082Z,312
2016-06-05T03:40:15.084Z,328
2016-06-05T03:41:15.072Z,344
2016-06-05T03:42:15.105Z,356
2016-06-05T03:43:15.453Z,372
2016-06-05T03:44:15.095Z,384
2016-06-05T03:45:15.035Z,404
2016-06-05T03:46:15.053Z,416
2016-06-05T03:47:14.869Z,436
2016-06-05T03:48:15.044Z,448
2016-06-05T03:49:15.000Z,468
2016-06-05T03:50:15.002Z,484
2016-06-05T03:51:14.974Z,500
2016-06-05T03:52:14.977Z,520
2016-06-05T03:53:14.932Z,536
2016-06-05T03:54:14.935Z,556
2016-06-05T03:55:14.907Z,576
2016-06-05T03:56:14.924Z,592
2016-06-05T03:57:14.912Z,608
2016-06-05T03:58:14.960Z,628
2016-06-05T03:59:14.885Z,648
2016-06-05T04:00:14.873Z,668
2016-06-05T04:01:14.860Z,692
2016-06-05T04:02:14.863Z,712
2016-06-05T04:03:14.834Z,732
2016-06-05T04:04:14.837Z,752
2016-06-05T04:05:14.824Z,776
2016-06-05T04:06:14.873Z,796
2016-06-05T04:07:14.814Z,816
2016-06-05T04:08:14.816Z,840
2016-06-05T04:09:14.772Z,856
2016-06-05T04:10:14.790Z,880
2016-06-05T04:11:14.746Z,904
2016-06-05T04:12:14.748Z,924
2016-06-05T04:13:15.533Z,948
2016-06-05T04:14:14.723Z,972
2016-06-05T04:15:14.726Z,992
2016-06-05T04:16:14.681Z,1016
2016-06-05T04:17:14.676Z,1040
2016-06-05T04:18:14.706Z,1064
2016-06-05T04:19:14.720Z,1088
2016-06-05T04:20:14.751Z,1112
2016-06-05T04:21:14.765Z,1132
2016-06-05T04:22:14.776Z,1156
2016-06-05T04:23:14.788Z,1180
2016-06-05T04:24:14.770Z,1204
2016-06-05T04:25:14.626Z,1228
2016-06-05T04:26:14.796Z,1248
2016-06-05T04:27:14.619Z,1272
2016-06-05T04:28:14.767Z,1292
2016-06-05T04:29:15.476Z,1320
2016-06-05T04:30:14.764Z,1344
2016-06-05T04:31:14.754Z,1368
2016-06-05T04:32:14.745Z,1396
2016-06-05T04:33:14.748Z,1416
2016-06-05T04:34:14.722Z,1440
2016-06-05T04:35:14.771Z,1464
2016-06-05T04:36:14.713Z,1488
2016-06-05T04:37:14.700Z,1508
2016-06-05T04:38:14.689Z,1528
2016-06-05T04:39:14.659Z,1552
2016-06-05T04:40:14.679Z,1580
2016-06-05T04:41:14.651Z,1604
2016-06-05T04:42:14.623Z,1632
2016-06-05T04:43:14.627Z,1652
2016-06-05T04:44:14.630Z,1680
2016-06-05T04:45:14.616Z,1704
2016-06-05T04:46:14.620Z,1728
2016-06-05T04:47:14.606Z,1748
2016-06-05T04:48:14.578Z,1772
2016-06-05T04:49:14.612Z,1796
2016-06-05T04:50:14.411Z,1820
2016-06-05T04:51:14.586Z,1844
2016-06-05T04:52:14.558Z,1868
2016-06-05T04:53:14.530Z,1892
2016-06-05T04:54:14.516Z,1912
2016-06-05T04:55:14.503Z,1936
2016-06-05T04:56:14.490Z,1960
2016-06-05T04:57:14.494Z,1984
2016-06-05T04:58:14.683Z,2008
2016-06-05T04:59:14.467Z,2032
2016-06-05T05:00:14.438Z,2056
2016-06-05T05:01:14.441Z,2080
2016-06-05T05:02:14.413Z,2104
2016-06-05T05:03:14.415Z,2124
2016-06-05T05:04:14.418Z,2148
2016-06-05T05:05:14.421Z,2168
2016-06-05T05:06:14.393Z,2192
2016-06-05T05:07:14.379Z,2216
2016-06-05T05:08:14.382Z,2240
2016-06-05T05:09:14.385Z,2264
2016-06-05T05:10:14.357Z,2284
2016-06-05T05:11:14.343Z,2304
2016-06-05T05:12:14.330Z,2328
2016-06-05T05:13:14.443Z,2352
2016-06-05T05:14:14.320Z,2376
2016-06-05T05:15:14.276Z,2396
2016-06-05T05:16:14.294Z,2416
2016-06-05T05:17:14.281Z,2444
2016-06-05T05:18:14.253Z,2468
2016-06-05T05:19:14.255Z,2500
2016-06-05T05:20:14.258Z,2528
2016-06-05T05:21:14.105Z,2556
2016-06-05T05:22:14.326Z,2584
2016-06-05T05:23:14.220Z,2612
2016-06-05T05:24:14.206Z,2640
2016-06-05T05:25:14.209Z,2660
2016-06-05T05:26:14.228Z,2684
2016-06-05T05:27:14.214Z,2704
2016-06-05T05:28:14.280Z,2728
2016-06-05T05:29:14.172Z,2748
2016-06-05T05:30:14.175Z,2772
2016-06-05T05:31:14.147Z,2792
2016-06-05T05:32:14.181Z,2808
2016-06-05T05:33:14.137Z,2824
2016-06-05T05:34:14.202Z,2832
2016-06-05T05:35:14.095Z,2848
2016-06-05T05:36:13.941Z,2864
2016-06-05T05:37:14.085Z,2876
2016-06-05T05:38:14.088Z,2896
2016-06-05T05:39:14.074Z,2916
2016-06-05T05:40:14.124Z,2940
2016-06-05T05:41:14.049Z,2960
2016-06-05T05:42:14.037Z,2980
2016-06-05T05:43:14.773Z,2992
2016-06-05T05:44:14.056Z,3016
2016-06-05T05:45:14.013Z,3036
2016-06-05T05:46:14.000Z,3048
2016-06-05T05:47:13.987Z,3068
2016-06-05T05:48:13.973Z,3088
2016-06-05T05:49:13.961Z,3112
2016-06-05T05:50:13.964Z,3128
2016-06-05T05:51:13.951Z,3144
2016-06-05T05:52:13.969Z,3164
2016-06-05T05:53:13.925Z,3188
2016-06-05T05:54:13.928Z,3208
2016-06-05T05:55:13.914Z,3232
2016-06-05T05:56:13.917Z,3252
2016-06-05T05:57:13.905Z,3276
2016-06-05T05:58:13.908Z,3296
2016-06-05T05:59:13.863Z,3320
2016-06-05T06:00:13.741Z,3344
2016-06-05T06:01:13.884Z,3368
2016-06-05T06:02:13.855Z,3396
2016-06-05T06:03:13.843Z,3420
2016-06-05T06:04:13.830Z,3456
2016-06-05T06:05:13.816Z,3480
2016-06-05T06:06:13.804Z,3508
2016-06-05T06:07:13.806Z,3532
2016-06-05T06:08:13.809Z,3548
2016-06-05T06:09:13.780Z,3572
2016-06-05T06:10:13.626Z,3592
2016-06-05T06:11:13.770Z,3608
2016-06-05T06:12:13.742Z,3620
2016-06-05T06:13:14.416Z,3640
2016-06-05T06:14:13.731Z,3652
2016-06-05T06:15:13.734Z,3668
2016-06-05T06:16:13.737Z,3684
2016-06-05T06:17:13.708Z,3704
2016-06-05T06:18:13.711Z,3732
2016-06-05T06:19:13.761Z,3744
2016-06-05T06:20:13.701Z,3768
2016-06-05T06:21:13.734Z,3784
2016-06-05T06:22:13.690Z,3812
2016-06-05T06:23:13.521Z,3828
2016-06-05T06:24:13.665Z,3836
2016-06-05T06:25:13.698Z,3844
2016-06-05T06:26:13.638Z,3840
2016-06-05T06:27:13.735Z,3852
2016-06-05T06:28:13.472Z,3868
2016-06-05T06:29:13.458Z,3876
2016-06-05T06:30:13.586Z,3892
2016-06-05T06:31:13.699Z,3908
2016-06-05T06:32:13.592Z,3924
2016-06-05T06:33:13.563Z,3952
2016-06-05T06:34:13.582Z,3968
2016-06-05T06:35:13.554Z,3984
2016-06-05T06:36:13.540Z,4012
2016-06-05T06:37:13.590Z,4044
2016-06-05T06:38:13.530Z,4064
2016-06-05T06:39:13.565Z,4076
2016-06-05T06:40:13.535Z,4100
2016-06-05T06:41:13.507Z,4116
2016-06-05T06:42:13.510Z,4140
2016-06-05T06:43:13.543Z,4164
2016-06-05T06:44:13.484Z,4180
2016-06-05T06:45:13.393Z,4220
2016-06-05T06:46:13.473Z,4252
2016-06-05T06:47:13.462Z,4288
2016-06-05T06:48:13.307Z,4308
2016-06-05T06:49:13.434Z,4348
2016-06-05T06:50:13.265Z,4376
2016-06-05T06:51:13.425Z,4396
2016-06-05T06:52:13.412Z,4424
2016-06-05T06:53:13.430Z,4448
2016-06-05T06:54:13.386Z,4484
2016-06-05T06:55:13.388Z,4500
2016-06-05T06:56:13.391Z,4512
2016-06-05T06:57:13.378Z,4532
2016-06-05T06:58:13.334Z,4568
2016-06-05T06:59:13.368Z,4596
2016-06-05T07:00:13.355Z,4620
2016-06-05T07:01:13.358Z,4624
2016-06-05T07:02:13.438Z,4628
2016-06-05T07:03:13.160Z,4656
2016-06-05T07:04:13.241Z,4676
2016-06-05T07:05:13.306Z,4704
2016-06-05T07:06:13.466Z,4736
2016-06-05T07:07:13.311Z,4752
2016-06-05T07:08:13.346Z,4776
2016-06-05T07:09:13.286Z,4776
2016-06-05T07:10:13.257Z,4800
2016-06-05T07:11:13.275Z,4824
2016-06-05T07:12:13.309Z,4844
2016-06-05T07:13:13.469Z,4864
2016-06-05T07:14:13.252Z,4880
2016-06-05T07:15:13.255Z,4892
2016-06-05T07:16:13.242Z,4900
2016-06-05T07:17:13.072Z,4908
2016-06-05T07:18:13.326Z,4920
2016-06-05T07:19:13.235Z,4912
2016-06-05T07:20:13.221Z,4940
2016-06-05T07:21:13.192Z,4960
2016-06-05T07:22:13.211Z,1244
2016-06-05T07:23:13.183Z,1228
2016-06-05T07:24:13.186Z,1228
2016-06-05T07:25:13.172Z,1244
2016-06-05T07:26:13.159Z,1248
2016-06-05T07:27:13.147Z,1256
2016-06-05T07:28:13.790Z,1264
2016-06-05T07:29:13.136Z,1272
2016-06-05T07:30:13.108Z,1280
2016-06-05T07:31:13.126Z,1292
2016-06-05T07:32:13.128Z,1292
2016-06-05T07:33:13.131Z,1304
2016-06-05T07:34:13.088Z,1316
2016-06-05T07:35:13.074Z,1324
2016-06-05T07:36:13.093Z,1332
2016-06-05T07:37:13.095Z,1344
2016-06-05T07:38:13.083Z,1352
2016-06-05T07:39:13.132Z,1384
2016-06-05T07:40:13.057Z,1372
2016-06-05T07:41:13.059Z,1384
2016-06-05T07:42:13.046Z,1392
2016-06-05T07:43:13.033Z,1284
2016-06-05T07:44:12.754Z,1388
2016-06-05T07:45:13.054Z,1400
2016-06-05T07:46:13.041Z,1404
2016-06-05T07:47:13.076Z,1380
2016-06-05T07:48:13.000Z,1380
2016-06-05T07:49:12.831Z,1380
2016-06-05T07:50:12.990Z,1372
2016-06-05T07:51:13.086Z,1388
2016-06-05T07:52:12.964Z,1392
2016-06-05T07:53:12.982Z,1404
2016-06-05T07:54:12.969Z,1412
2016-06-05T07:55:12.956Z,1416
2016-06-05T07:56:12.943Z,1432
2016-06-05T07:57:13.039Z,1436
2016-06-05T07:58:13.574Z,1452
2016-06-05T07:59:12.967Z,1460
2016-06-05T08:00:12.938Z,1464
2016-06-05T08:01:12.926Z,1468
2016-06-05T08:02:12.928Z,1476
2016-06-05T08:03:12.930Z,1488
2016-06-05T08:04:12.918Z,1496
2016-06-05T08:05:12.889Z,1512
2016-06-05T08:06:12.892Z,1516
2016-06-05T08:07:12.894Z,1528
2016-06-05T08:08:12.882Z,1528
2016-06-05T08:09:12.853Z,1536
2016-06-05T08:10:12.699Z,1548
2016-06-05T08:11:12.843Z,1560
2016-06-05T08:12:12.846Z,1560
2016-06-05T08:13:12.693Z,1568
2016-06-05T08:14:12.820Z,1564
2016-06-05T08:15:12.837Z,1580
2016-06-05T08:16:12.887Z,1584
2016-06-05T08:17:12.828Z,1588
2016-06-05T08:18:12.877Z,1564
2016-06-05T08:19:12.801Z,1584
2016-06-05T08:20:12.789Z,1680
2016-06-05T08:21:12.792Z,1680
2016-06-05T08:22:12.825Z,1692
2016-06-05T08:23:12.766Z,1704
2016-06-05T08:24:12.878Z,1616
2016-06-05T08:25:12.771Z,1628
2016-06-05T08:26:12.805Z,1628
2016-06-05T08:27:12.745Z,1636
2016-06-05T08:28:12.795Z,1644
2016-06-05T08:29:12.751Z,1656
2016-06-05T08:30:12.581Z,1676
2016-06-05T08:31:12.725Z,1700
2016-06-05T08:32:12.712Z,1732
2016-06-05T08:33:12.715Z,1740
2016-06-05T08:34:12.749Z,1736
2016-06-05T08:35:12.705Z,1732
2016-06-05T08:36:12.754Z,1732
2016-06-05T08:37:12.694Z,1744
2016-06-05T08:38:12.743Z,1764
2016-06-05T08:39:12.699Z,1780
2016-06-05T08:40:12.686Z,1784
2016-06-05T08:41:12.518Z,1800
2016-06-05T08:42:12.661Z,1816
2016-06-05T08:43:12.835Z,1816
2016-06-05T08:44:13.119Z,1820
2016-06-05T08:45:12.654Z,1824
2016-06-05T08:46:12.640Z,1832
2016-06-05T08:47:12.659Z,1844
2016-06-05T08:48:12.630Z,1864
2016-06-05T08:49:12.617Z,1872
2016-06-05T08:50:12.479Z,1888
2016-06-05T08:51:12.466Z,1896
2016-06-05T08:52:12.640Z,1896
2016-06-05T08:53:12.487Z,1932
2016-06-05T08:54:12.630Z,2000
2016-06-05T08:55:12.601Z,2028
2016-06-05T08:56:12.573Z,1968
2016-06-05T08:57:12.576Z,1928
2016-06-05T08:58:12.688Z,1912
2016-06-05T08:59:12.425Z,1904
2016-06-05T09:00:12.569Z,1912
2016-06-05T09:01:12.572Z,1912
2016-06-05T09:02:12.558Z,1924
2016-06-05T09:03:12.545Z,1932
2016-06-05T09:04:12.564Z,1924
2016-06-05T09:05:12.567Z,1924
2016-06-05T09:06:12.538Z,1948
2016-06-05T09:07:12.509Z,1944
2016-06-05T09:08:12.512Z,1944
2016-06-05T09:09:12.405Z,1948
2016-06-05T09:10:12.517Z,1960
2016-06-05T09:11:12.519Z,1960
2016-06-05T09:12:12.522Z,1964
2016-06-05T09:13:13.119Z,1972
2016-06-05T09:14:12.496Z,1984
2016-06-05T09:15:12.515Z,1988
2016-06-05T09:16:12.487Z,1992
2016-06-05T09:17:12.458Z,2008
2016-06-05T09:18:12.476Z,2016
2016-06-05T09:19:12.448Z,2028
2016-06-05T09:20:12.482Z,2032
2016-06-05T09:21:12.469Z,2036
2016-06-05T09:22:12.456Z,2044
2016-06-05T09:23:12.442Z,2052
2016-06-05T09:24:12.445Z,2052
2016-06-05T09:25:12.433Z,2056
2016-06-05T09:26:12.435Z,2064
2016-06-05T09:27:12.453Z,2072
2016-06-05T09:28:13.394Z,2076
2016-06-05T09:29:12.131Z,2080
2016-06-05T09:30:12.415Z,2084
2016-06-05T09:31:12.402Z,2088
2016-06-05T09:32:12.420Z,2088
2016-06-05T09:33:12.236Z,2100
2016-06-05T09:34:12.473Z,2104
2016-06-05T09:35:12.381Z,2112
2016-06-05T09:36:12.227Z,2112
2016-06-05T09:37:12.214Z,2124
2016-06-05T09:38:12.405Z,2132
2016-06-05T09:39:12.361Z,2136
2016-06-05T09:40:12.363Z,2140
2016-06-05T09:41:12.367Z,2148
2016-06-05T09:42:12.353Z,2156
2016-06-05T09:43:13.027Z,2164
2016-06-05T09:44:12.202Z,2164
2016-06-05T09:45:12.315Z,2168
2016-06-05T09:46:12.318Z,2176
2016-06-05T09:47:12.179Z,2168
2016-06-05T09:48:12.323Z,2180
2016-06-05T09:49:12.310Z,2188
2016-06-05T09:50:12.157Z,2184
2016-06-05T09:51:12.331Z,2192
2016-06-05T09:52:12.302Z,2200
2016-06-05T09:53:12.148Z,2208
2016-06-05T09:54:12.276Z,2212
2016-06-05T09:55:12.295Z,2228
2016-06-05T09:56:12.282Z,2228
2016-06-05T09:57:12.268Z,2228
2016-06-05T09:58:12.553Z,2240
2016-06-05T09:59:12.274Z,2236
2016-06-05T10:00:12.262Z,2236
2016-06-05T10:01:12.264Z,2256
2016-06-05T10:02:12.251Z,2272
2016-06-05T10:03:12.316Z,2292
2016-06-05T10:04:12.241Z,2304
2016-06-05T10:05:12.321Z,2324
2016-06-05T10:06:12.247Z,2336
2016-06-05T10:07:12.249Z,2348
2016-06-05T10:08:12.220Z,2360
2016-06-05T10:09:12.269Z,2376
2016-06-05T10:10:12.210Z,2388
2016-06-05T10:11:12.213Z,2416
2016-06-05T10:12:12.216Z,2436
2016-06-05T10:13:12.421Z,2452
2016-06-05T10:14:12.204Z,2484
2016-06-05T10:15:12.207Z,2520
2016-06-05T10:16:12.035Z,2552
2016-06-05T10:17:12.229Z,2604
2016-06-05T10:18:12.199Z,2664
2016-06-05T10:19:12.390Z,2736
2016-06-05T10:20:12.156Z,2864
2016-06-05T10:21:12.190Z,6940
2016-06-05T10:22:12.176Z,20416
2016-06-05T10:23:12.164Z,28608
2016-06-05T10:24:12.182Z,25312
2016-06-05T10:25:12.170Z,12532
2016-06-05T10:26:12.157Z,3936
2016-06-05T10:27:12.159Z,3124
2016-06-05T10:28:12.223Z,3028
2016-06-05T10:29:12.590Z,2976
2016-06-05T10:30:12.246Z,2948
2016-06-05T10:31:12.170Z,2920
2016-06-05T10:32:12.219Z,2912
2016-06-05T10:33:12.159Z,2908
2016-06-05T10:34:12.240Z,2884
2016-06-05T10:35:12.150Z,2864
2016-06-05T10:36:12.152Z,2848
2016-06-05T10:37:12.155Z,2836
2016-06-05T10:38:12.173Z,2800
2016-06-05T10:39:12.160Z,2764
2016-06-05T10:40:12.006Z,2724
2016-06-05T10:41:12.134Z,2716
2016-06-05T10:42:12.183Z,2708
2016-06-05T10:43:12.452Z,2688
2016-06-05T10:44:12.127Z,2680
2016-06-05T10:45:12.113Z,2664
2016-06-05T10:46:12.117Z,2652
2016-06-05T10:47:12.135Z,2536
2016-06-05T10:48:12.137Z,2580
2016-06-05T10:49:11.968Z,2608
2016-06-05T10:50:12.127Z,2612
2016-06-05T10:51:12.099Z,2616
2016-06-05T10:52:12.117Z,2604
2016-06-05T10:53:12.104Z,2612
2016-06-05T10:54:12.106Z,2612
2016-06-05T10:55:12.094Z,2624
2016-06-05T10:56:12.081Z,2664
2016-06-05T10:57:12.099Z,2656
2016-06-05T10:58:12.383Z,2656
2016-06-05T10:59:12.104Z,2644
2016-06-05T11:00:12.076Z,2684
2016-06-05T11:01:12.078Z,2696
2016-06-05T11:02:12.081Z,2552
2016-06-05T11:03:12.147Z,2636
2016-06-05T11:04:12.087Z,2592
2016-06-05T11:05:12.090Z,2752
2016-06-05T11:06:12.092Z,2820
2016-06-05T11:07:12.078Z,2852
2016-06-05T11:08:12.035Z,2800
2016-06-05T11:09:12.084Z,2856
2016-06-05T11:10:12.056Z,2828
2016-06-05T11:11:12.075Z,2828
2016-06-05T11:12:12.046Z,2784
2016-06-05T11:13:12.080Z,2820
2016-06-05T11:14:12.036Z,2892
2016-06-05T11:15:12.117Z,2880
2016-06-05T11:16:12.040Z,2912
2016-06-05T11:17:12.090Z,2852
2016-06-05T11:18:12.030Z,2876
2016-06-05T11:19:12.049Z,2852
2016-06-05T11:20:12.036Z,2808
2016-06-05T11:21:12.023Z,2844
2016-06-05T11:22:12.026Z,2880
2016-06-05T11:23:12.012Z,2872
2016-06-05T11:24:11.999Z,2944
2016-06-05T11:25:12.034Z,2960
2016-06-05T11:26:11.865Z,2956
2016-06-05T11:27:12.024Z,2936
2016-06-05T11:28:11.980Z,2900
2016-06-05T11:29:12.498Z,2884
2016-06-05T11:30:12.016Z,2868
2016-06-05T11:31:11.987Z,2976
2016-06-05T11:32:12.037Z,2960
2016-06-05T11:33:12.009Z,2948
2016-06-05T11:34:12.089Z,2980
2016-06-05T11:35:11.983Z,1280
2016-06-05T11:36:12.032Z,1316
2016-06-05T11:37:11.988Z,3012
2016-06-05T11:38:11.991Z,2920
2016-06-05T11:39:11.962Z,2544
2016-06-05T11:40:11.981Z,2600
2016-06-05T11:41:11.967Z,3116
2016-06-05T11:42:11.955Z,1160
2016-06-05T11:43:11.660Z,1112
2016-06-05T11:44:13.132Z,1220
2016-06-05T11:45:11.963Z,3132
2016-06-05T11:46:11.966Z,3132
2016-06-05T11:47:11.968Z,3128
2016-06-05T11:48:11.955Z,2992
2016-06-05T11:49:11.958Z,3064
2016-06-05T11:50:11.944Z,3004
2016-06-05T11:51:11.947Z,3036
2016-06-05T11:52:11.934Z,3012
2016-06-05T11:53:11.937Z,2956
2016-06-05T11:54:11.925Z,3008
2016-06-05T11:55:11.912Z,2912
2016-06-05T11:56:11.945Z,1500
2016-06-05T11:57:11.792Z,2716
2016-06-05T11:58:11.935Z,1532
2016-06-05T11:59:13.281Z,2444
2016-06-05T12:00:11.909Z,1696
2016-06-05T12:01:11.818Z,1836
2016-06-05T12:02:11.914Z,1452
2016-06-05T12:03:11.995Z,2668
2016-06-05T12:04:11.889Z,3020
2016-06-05T12:05:11.891Z,2960
2016-06-05T12:06:11.926Z,3044
2016-06-05T12:07:11.757Z,3040
2016-06-05T12:08:11.914Z,3036
2016-06-05T12:09:11.903Z,3028
2016-06-05T12:10:11.890Z,3028
2016-06-05T12:11:11.736Z,2672
2016-06-05T12:12:11.895Z,2300
2016-06-05T12:13:11.757Z,2948
2016-06-05T12:14:11.744Z,2784
2016-06-05T12:15:11.871Z,2040
2016-06-05T12:16:11.875Z,2896
2016-06-05T12:17:11.908Z,2860
2016-06-05T12:18:11.879Z,2824
2016-06-05T12:19:11.898Z,2836
2016-06-05T12:20:11.869Z,2776
2016-06-05T12:21:11.857Z,2756
2016-06-05T12:22:11.860Z,2752
2016-06-05T12:23:11.846Z,2852
2016-06-05T12:24:11.849Z,2872
2016-06-05T12:25:11.867Z,2868
2016-06-05T12:26:11.949Z,2788
2016-06-05T12:27:11.856Z,2864
2016-06-05T12:28:12.406Z,2760
2016-06-05T12:29:12.112Z,2704
2016-06-05T12:30:11.865Z,2744
2016-06-05T12:31:11.836Z,2752
2016-06-05T12:32:11.839Z,2780
2016-06-05T12:33:11.810Z,2800
2016-06-05T12:34:11.829Z,2764
2016-06-05T12:35:11.832Z,2740
2016-06-05T12:36:11.928Z,2784
2016-06-05T12:37:11.836Z,2808
2016-06-05T12:38:11.824Z,2688
2016-06-05T12:39:11.842Z,2656
2016-06-05T12:40:11.829Z,2616
2016-06-05T12:41:11.816Z,2608
2016-06-05T12:42:11.867Z,2600
2016-06-05T12:43:11.869Z,2632
2016-06-05T12:44:11.934Z,2696
2016-06-05T12:45:11.797Z,2700
2016-06-05T12:46:11.799Z,2732
2016-06-05T12:47:11.802Z,2728
2016-06-05T12:48:11.835Z,2676
2016-06-05T12:49:11.822Z,2656
2016-06-05T12:50:11.638Z,2608
2016-06-05T12:51:11.780Z,2588
2016-06-05T12:52:11.643Z,2652
2016-06-05T12:53:11.786Z,2664
2016-06-05T12:54:11.617Z,2664
2016-06-05T12:55:11.776Z,2652
2016-06-05T12:56:11.622Z,2672
2016-06-05T12:57:11.782Z,2616
2016-06-05T12:58:11.769Z,1312
2016-06-05T12:59:12.084Z,1284
2016-06-05T13:00:11.617Z,1288
2016-06-05T13:01:11.793Z,1328
2016-06-05T13:02:11.763Z,1868
2016-06-05T13:03:11.812Z,2704
2016-06-05T13:04:11.769Z,2480
2016-06-05T13:05:11.787Z,2432
2016-06-05T13:06:11.774Z,1288
2016-06-05T13:07:11.793Z,1244
2016-06-05T13:08:11.748Z,1256
2016-06-05T13:09:11.751Z,2020
2016-06-05T13:10:11.753Z,2428
2016-06-05T13:11:11.741Z,2532
2016-06-05T13:12:11.744Z,2596
2016-06-05T13:13:11.606Z,2632
2016-06-05T13:14:12.092Z,2568
2016-06-05T13:15:11.736Z,2620
2016-06-05T13:16:11.739Z,2628
2016-06-05T13:17:11.741Z,2620
2016-06-05T13:18:11.713Z,2592
2016-06-05T13:19:11.747Z,2560
2016-06-05T13:20:11.733Z,2548
2016-06-05T13:21:11.721Z,2540
2016-06-05T13:22:11.724Z,2580
2016-06-05T13:23:11.726Z,2532
2016-06-05T13:24:11.708Z,2492
2016-06-05T13:25:11.750Z,2512
2016-06-05T13:26:11.776Z,2508
2016-06-05T13:27:11.786Z,2372
2016-06-05T13:28:12.344Z,2448
2016-06-05T13:29:12.066Z,2460
2016-06-05T13:30:11.687Z,2440
2016-06-05T13:31:11.839Z,2456
2016-06-05T13:32:11.850Z,2460
2016-06-05T13:33:11.846Z,2456
2016-06-05T13:34:11.854Z,2432
2016-06-05T13:35:11.860Z,2452
2016-06-05T13:36:11.897Z,2392
2016-06-05T13:37:11.841Z,2440
2016-06-05T13:38:11.830Z,2472
2016-06-05T13:39:11.851Z,2384